sensor_id;sensor_type;location;lat;lon;timestamp;pressure;altitude;pressure_sealevel;temperature;humidity
39083;BME280;24834;44.444;26.098;2023-06-26T04:06:42;100202.28;;;24.03;
39083;BME280;24834;44.444;26.098;2023-06-26T06:09:15;100234.44;;;25.80;
39083;BME280;24834;44.444;26.098;2023-06-26T06:15:17;100235.25;;;25.66;
39083;BME280;24834;44.444;26.098;2023-06-26T06:21:20;100236.06;;;25.52;
39083;BME280;24834;44.444;26.098;2023-06-26T06:27:23;100239.94;;;25.48;
39083;BME280;24834;44.444;26.098;2023-06-26T06:33:26;100244.56;;;25.47;
39083;BME280;24834;44.444;26.098;2023-06-26T06:39:30;100238.41;;;25.36;
39083;BME280;24834;44.444;26.098;2023-06-26T06:45:33;100236.94;;;25.28;
39083;BME280;24834;44.444;26.098;2023-06-26T06:51:40;100238.50;;;25.08;
39083;BME280;24834;44.444;26.098;2023-06-26T06:57:44;100243.09;;;24.93;
39083;BME280;24834;44.444;26.098;2023-06-26T07:03:46;100250.81;;;24.81;
39083;BME280;24834;44.444;26.098;2023-06-26T07:09:50;100260.03;;;24.87;
39083;BME280;24834;44.444;26.098;2023-06-26T07:15:53;100241.19;;;24.94;
39083;BME280;24834;44.444;26.098;2023-06-26T07:21:56;100251.16;;;25.29;
39083;BME280;24834;44.444;26.098;2023-06-26T07:27:58;100253.72;;;25.74;
39083;BME280;24834;44.444;26.098;2023-06-26T07:34:03;100252.69;;;26.23;
39083;BME280;24834;44.444;26.098;2023-06-26T07:40:06;100253.13;;;26.70;
39083;BME280;24834;44.444;26.098;2023-06-26T07:46:09;100251.31;;;27.41;
39083;BME280;24834;44.444;26.098;2023-06-26T07:52:11;100254.72;;;27.45;
39083;BME280;24834;44.444;26.098;2023-06-26T07:58:14;100239.47;;;27.88;
39083;BME280;24834;44.444;26.098;2023-06-26T08:04:18;100250.75;;;28.10;
39083;BME280;24834;44.444;26.098;2023-06-26T08:10:22;100251.88;;;28.39;
39083;BME280;24834;44.444;26.098;2023-06-26T08:16:26;100248.22;;;28.26;
39083;BME280;24834;44.444;26.098;2023-06-26T08:22:28;100245.69;;;28.85;
39083;BME280;24834;44.444;26.098;2023-06-26T08:28:33;100252.31;;;29.03;
39083;BME280;24834;44.444;26.098;2023-06-26T08:34:35;100240.13;;;28.49;
39083;BME280;24834;44.444;26.098;2023-06-26T08:40:42;100234.53;;;28.10;
39083;BME280;24834;44.444;26.098;2023-06-26T08:46:44;100235.00;;;28.78;
39083;BME280;24834;44.444;26.098;2023-06-26T08:53:15;100236.75;;;28.18;
39083;BME280;24834;44.444;26.098;2023-06-26T08:59:23;100236.75;;;28.65;
39083;BME280;24834;44.444;26.098;2023-06-26T09:05:26;100232.53;;;28.87;
39083;BME280;24834;44.444;26.098;2023-06-26T09:11:35;100217.38;;;29.09;
39083;BME280;24834;44.444;26.098;2023-06-26T09:17:39;100219.03;;;29.23;
39083;BME280;24834;44.444;26.098;2023-06-26T09:23:45;100219.19;;;29.71;
39083;BME280;24834;44.444;26.098;2023-06-26T09:29:48;100216.34;;;29.94;
39083;BME280;24834;44.444;26.098;2023-06-26T09:35:50;100212.59;;;30.20;
39083;BME280;24834;44.444;26.098;2023-06-26T09:41:54;100216.13;;;30.33;
39083;BME280;24834;44.444;26.098;2023-06-26T09:48:00;100210.22;;;30.22;
39083;BME280;24834;44.444;26.098;2023-06-26T09:54:05;100202.16;;;30.63;
39083;BME280;24834;44.444;26.098;2023-06-26T10:00:10;100210.16;;;30.54;
39083;BME280;24834;44.444;26.098;2023-06-26T10:06:19;100189.19;;;31.37;
39083;BME280;24834;44.444;26.098;2023-06-26T10:12:30;100196.25;;;31.47;
39083;BME280;24834;44.444;26.098;2023-06-26T10:18:36;100188.38;;;31.12;
39083;BME280;24834;44.444;26.098;2023-06-26T10:24:42;100184.59;;;30.68;
39083;BME280;24834;44.444;26.098;2023-06-26T10:30:51;100186.03;;;30.72;
39083;BME280;24834;44.444;26.098;2023-06-26T10:37:03;100179.28;;;30.64;
39083;BME280;24834;44.444;26.098;2023-06-26T10:43:08;100170.97;;;30.11;
39083;BME280;24834;44.444;26.098;2023-06-26T10:49:12;100174.31;;;31.17;
39083;BME280;24834;44.444;26.098;2023-06-26T10:55:14;100155.88;;;30.96;
39083;BME280;24834;44.444;26.098;2023-06-26T11:01:22;100146.47;;;31.38;
39083;BME280;24834;44.444;26.098;2023-06-26T11:07:26;100143.84;;;30.55;
39083;BME280;24834;44.444;26.098;2023-06-26T11:13:34;100146.41;;;30.46;
39083;BME280;24834;44.444;26.098;2023-06-26T11:19:42;100147.16;;;30.88;
39083;BME280;24834;44.444;26.098;2023-06-26T11:25:47;100140.03;;;31.07;
39083;BME280;24834;44.444;26.098;2023-06-26T11:31:58;100139.72;;;31.05;
39083;BME280;24834;44.444;26.098;2023-06-26T11:38:06;100156.03;;;31.05;
39083;BME280;24834;44.444;26.098;2023-06-26T11:44:09;100151.97;;;30.97;
39083;BME280;24834;44.444;26.098;2023-06-26T11:50:16;100149.97;;;30.72;
39083;BME280;24834;44.444;26.098;2023-06-26T11:56:22;100156.31;;;30.53;
39083;BME280;24834;44.444;26.098;2023-06-26T12:02:25;100143.97;;;30.64;
39083;BME280;24834;44.444;26.098;2023-06-26T12:08:30;100133.75;;;31.10;
39083;BME280;24834;44.444;26.098;2023-06-26T12:14:32;100136.22;;;31.42;
39083;BME280;24834;44.444;26.098;2023-06-26T12:20:40;100129.59;;;31.18;
39083;BME280;24834;44.444;26.098;2023-06-26T12:26:53;100127.94;;;31.58;
39083;BME280;24834;44.444;26.098;2023-06-26T12:32:57;100129.19;;;31.19;
39083;BME280;24834;44.444;26.098;2023-06-26T12:39:00;100131.31;;;31.62;
39083;BME280;24834;44.444;26.098;2023-06-26T12:45:10;100130.44;;;31.77;
39083;BME280;24834;44.444;26.098;2023-06-26T12:51:31;100128.72;;;31.71;
39083;BME280;24834;44.444;26.098;2023-06-26T12:57:35;100123.16;;;32.30;
39083;BME280;24834;44.444;26.098;2023-06-26T13:03:37;100131.63;;;32.32;
39083;BME280;24834;44.444;26.098;2023-06-26T13:09:39;100130.91;;;32.32;
39083;BME280;24834;44.444;26.098;2023-06-26T13:15:43;100130.09;;;32.74;
39083;BME280;24834;44.444;26.098;2023-06-26T13:21:46;100111.97;;;32.80;
39083;BME280;24834;44.444;26.098;2023-06-26T13:27:50;100126.44;;;31.57;
39083;BME280;24834;44.444;26.098;2023-06-26T13:33:57;100128.94;;;31.39;
39083;BME280;24834;44.444;26.098;2023-06-26T13:40:01;100110.13;;;31.07;
39083;BME280;24834;44.444;26.098;2023-06-26T13:46:05;100121.00;;;31.32;
39083;BME280;24834;44.444;26.098;2023-06-26T13:52:07;100127.75;;;31.65;
39083;BME280;24834;44.444;26.098;2023-06-26T13:58:10;100120.59;;;32.14;
39083;BME280;24834;44.444;26.098;2023-06-26T14:04:13;100126.19;;;32.32;
39083;BME280;24834;44.444;26.098;2023-06-26T14:10:18;100120.63;;;32.36;
39083;BME280;24834;44.444;26.098;2023-06-26T14:16:20;100132.91;;;31.72;
39083;BME280;24834;44.444;26.098;2023-06-26T14:22:24;100115.78;;;31.50;
39083;BME280;24834;44.444;26.098;2023-06-26T14:28:27;100119.50;;;31.18;
39083;BME280;24834;44.444;26.098;2023-06-26T14:34:30;100117.63;;;30.90;
39083;BME280;24834;44.444;26.098;2023-06-26T14:40:33;100118.84;;;30.19;
39083;BME280;24834;44.444;26.098;2023-06-26T14:46:40;100125.22;;;29.80;
39083;BME280;24834;44.444;26.098;2023-06-26T14:52:42;100120.66;;;29.77;
39083;BME280;24834;44.444;26.098;2023-06-26T14:58:44;100119.38;;;29.34;
39083;BME280;24834;44.444;26.098;2023-06-26T15:04:52;100122.19;;;28.91;
39083;BME280;24834;44.444;26.098;2023-06-26T15:10:54;100134.22;;;28.51;
39083;BME280;24834;44.444;26.098;2023-06-26T15:16:56;100129.00;;;28.60;
39083;BME280;24834;44.444;26.098;2023-06-26T15:22:59;100113.53;;;28.60;
39083;BME280;24834;44.444;26.098;2023-06-26T15:29:02;100109.97;;;28.63;
39083;BME280;24834;44.444;26.098;2023-06-26T15:35:07;100107.84;;;28.55;
39083;BME280;24834;44.444;26.098;2023-06-26T15:41:09;100132.59;;;28.53;
39083;BME280;24834;44.444;26.098;2023-06-26T15:47:12;100129.69;;;28.44;
39083;BME280;24834;44.444;26.098;2023-06-26T15:53:16;100133.84;;;28.49;
39083;BME280;24834;44.444;26.098;2023-06-26T15:59:19;100140.88;;;28.66;
39083;BME280;24834;44.444;26.098;2023-06-26T16:05:22;100153.91;;;28.90;
39083;BME280;24834;44.444;26.098;2023-06-26T16:11:27;100162.25;;;28.80;
39083;BME280;24834;44.444;26.098;2023-06-26T16:17:29;100161.09;;;28.58;
39083;BME280;24834;44.444;26.098;2023-06-26T16:23:31;100160.31;;;29.36;
39083;BME280;24834;44.444;26.098;2023-06-26T16:29:34;100154.75;;;29.43;
39083;BME280;24834;44.444;26.098;2023-06-26T16:35:37;100152.09;;;29.59;
39083;BME280;24834;44.444;26.098;2023-06-26T16:41:40;100153.47;;;29.31;
39083;BME280;24834;44.444;26.098;2023-06-26T16:47:43;100155.66;;;29.36;
39083;BME280;24834;44.444;26.098;2023-06-26T16:53:45;100149.31;;;29.27;
39083;BME280;24834;44.444;26.098;2023-06-26T16:59:49;100157.28;;;29.34;
39083;BME280;24834;44.444;26.098;2023-06-26T17:05:51;100163.66;;;29.08;
39083;BME280;24834;44.444;26.098;2023-06-26T17:11:59;100169.94;;;28.62;
39083;BME280;24834;44.444;26.098;2023-06-26T17:18:01;100183.63;;;28.28;
39083;BME280;24834;44.444;26.098;2023-06-26T17:24:04;100185.53;;;27.81;
39083;BME280;24834;44.444;26.098;2023-06-26T17:30:08;100195.34;;;27.72;
39083;BME280;24834;44.444;26.098;2023-06-26T17:36:11;100195.56;;;27.54;
39083;BME280;24834;44.444;26.098;2023-06-26T17:42:14;100204.88;;;27.50;
39083;BME280;24834;44.444;26.098;2023-06-26T17:48:17;100212.34;;;27.39;
39083;BME280;24834;44.444;26.098;2023-06-26T17:54:19;100225.13;;;27.34;
39083;BME280;24834;44.444;26.098;2023-06-26T18:00:21;100219.16;;;27.16;
39083;BME280;24834;44.444;26.098;2023-06-26T18:06:24;100211.97;;;26.99;
39083;BME280;24834;44.444;26.098;2023-06-26T18:12:27;100245.84;;;27.11;
39083;BME280;24834;44.444;26.098;2023-06-26T18:18:29;100262.25;;;26.86;
39083;BME280;24834;44.444;26.098;2023-06-26T18:24:31;100262.75;;;26.74;
39083;BME280;24834;44.444;26.098;2023-06-26T18:30:33;100259.69;;;26.72;
39083;BME280;24834;44.444;26.098;2023-06-26T18:36:37;100260.47;;;26.69;
39083;BME280;24834;44.444;26.098;2023-06-26T18:42:41;100271.28;;;26.66;
39083;BME280;24834;44.444;26.098;2023-06-26T18:48:46;100275.63;;;26.52;
39083;BME280;24834;44.444;26.098;2023-06-26T18:54:49;100270.31;;;26.35;
39083;BME280;24834;44.444;26.098;2023-06-26T19:00:51;100274.66;;;26.18;
39083;BME280;24834;44.444;26.098;2023-06-26T19:06:54;100278.94;;;26.09;
39083;BME280;24834;44.444;26.098;2023-06-26T19:12:56;100293.97;;;26.03;
39083;BME280;24834;44.444;26.098;2023-06-26T19:18:58;100286.34;;;25.91;
39083;BME280;24834;44.444;26.098;2023-06-26T19:25:03;100284.41;;;25.98;
39083;BME280;24834;44.444;26.098;2023-06-26T19:31:06;100302.50;;;25.98;
39083;BME280;24834;44.444;26.098;2023-06-26T19:37:08;100292.91;;;25.86;
39083;BME280;24834;44.444;26.098;2023-06-26T19:43:11;100306.03;;;25.66;
39083;BME280;24834;44.444;26.098;2023-06-26T19:49:13;100306.84;;;25.63;
39083;BME280;24834;44.444;26.098;2023-06-26T19:55:16;100314.16;;;25.59;
39083;BME280;24834;44.444;26.098;2023-06-26T20:01:19;100322.22;;;25.63;
39083;BME280;24834;44.444;26.098;2023-06-26T20:07:21;100316.84;;;25.56;
39083;BME280;24834;44.444;26.098;2023-06-26T20:13:24;100319.16;;;25.64;
39083;BME280;24834;44.444;26.098;2023-06-26T20:19:27;100320.72;;;25.65;
39083;BME280;24834;44.444;26.098;2023-06-26T20:25:29;100323.00;;;25.63;
39083;BME280;24834;44.444;26.098;2023-06-26T20:31:31;100324.94;;;25.59;
39083;BME280;24834;44.444;26.098;2023-06-26T20:37:34;100319.16;;;25.61;
39083;BME280;24834;44.444;26.098;2023-06-26T20:43:36;100318.00;;;25.62;
39083;BME280;24834;44.444;26.098;2023-06-26T20:49:39;100322.63;;;25.54;
39083;BME280;24834;44.444;26.098;2023-06-26T20:55:42;100318.81;;;25.38;
39083;BME280;24834;44.444;26.098;2023-06-26T21:01:44;100330.75;;;25.05;
39083;BME280;24834;44.444;26.098;2023-06-26T21:07:47;100329.22;;;25.22;
39083;BME280;24834;44.444;26.098;2023-06-26T21:13:49;100341.91;;;25.35;
39083;BME280;24834;44.444;26.098;2023-06-26T21:19:52;100335.34;;;25.36;
39083;BME280;24834;44.444;26.098;2023-06-26T21:25:54;100339.59;;;25.27;
39083;BME280;24834;44.444;26.098;2023-06-26T21:31:57;100350.75;;;25.18;
39083;BME280;24834;44.444;26.098;2023-06-26T21:38:00;100347.28;;;25.07;
39083;BME280;24834;44.444;26.098;2023-06-26T21:44:02;100353.03;;;25.02;
39083;BME280;24834;44.444;26.098;2023-06-26T21:50:05;100347.28;;;25.07;
39083;BME280;24834;44.444;26.098;2023-06-26T21:56:07;100343.81;;;25.07;
39083;BME280;24834;44.444;26.098;2023-06-26T22:02:10;100356.50;;;25.03;
39083;BME280;24834;44.444;26.098;2023-06-26T22:08:12;100348.38;;;24.88;
39083;BME280;24834;44.444;26.098;2023-06-26T22:14:15;100351.47;;;24.80;
39083;BME280;24834;44.444;26.098;2023-06-26T22:20:18;100360.28;;;24.70;
39083;BME280;24834;44.444;26.098;2023-06-26T22:26:20;100355.25;;;24.61;
39083;BME280;24834;44.444;26.098;2023-06-26T22:32:23;100367.44;;;24.31;
39083;BME280;24834;44.444;26.098;2023-06-26T22:38:25;100368.91;;;24.21;
39083;BME280;24834;44.444;26.098;2023-06-26T22:50:29;100366.97;;;24.11;
39083;BME280;24834;44.444;26.098;2023-06-26T22:56:32;100360.28;;;23.84;
39083;BME280;24834;44.444;26.098;2023-06-26T23:02:55;100364.94;;;23.97;
39083;BME280;24834;44.444;26.098;2023-06-26T23:08:57;100359.56;;;23.97;
39083;BME280;24834;44.444;26.098;2023-06-26T23:15:02;100355.78;;;24.05;
39083;BME280;24834;44.444;26.098;2023-06-26T23:21:07;100355.88;;;24.19;
39083;BME280;24834;44.444;26.098;2023-06-26T23:27:10;100356.66;;;24.27;
39083;BME280;24834;44.444;26.098;2023-06-26T23:33:12;100341.69;;;24.26;
39083;BME280;24834;44.444;26.098;2023-06-26T23:39:23;100343.22;;;24.20;
39083;BME280;24834;44.444;26.098;2023-06-26T23:45:25;100349.69;;;24.15;
39083;BME280;24834;44.444;26.098;2023-06-26T23:51:27;100341.19;;;23.96;
39083;BME280;24834;44.444;26.098;2023-06-26T23:57:30;100341.81;;;23.79;
